Time;durP1;ratioP1;P1;durP2;ratioP2;P2;SDS_P1;SDS_P2;PMS_P1;PMS_P2;Temp;Humidity;BMP_temperature;BMP_pressure;BME280_temperature;BME280_humidity;BME280_pressure;Samples;Min_cycle;Max_cycle;Signal;HPM_P1;HPM_P2
2022/12/07 00:03:47;;;;;;;3.47;2.97;;;;;;;17.13;48.24;96674.59;10473796;28;20029;-29
2022/12/07 00:08:48;;;;;;;4.22;3.10;;;;;;;17.15;47.65;96667.88;10487941;28;20036;-29
2022/12/07 00:13:53;;;;;;;5.95;3.25;;;;;;;17.18;47.60;96672.94;10480808;28;20524;-30
2022/12/07 00:18:54;;;;;;;4.35;3.53;;;;;;;17.18;47.36;96672.94;10478256;28;20038;-29
2022/12/07 00:23:56;;;;;;;6.55;3.30;;;;;;;17.17;48.15;96666.19;10477322;28;20039;-29
2022/12/07 00:29:00;;;;;;;5.95;3.60;;;;;;;17.18;47.81;96662.84;10480091;28;20105;-29
2022/12/07 00:34:00;;;;;;;11.43;3.22;;;;;;;17.16;47.98;96650.16;10478493;28;20029;-28
2022/12/07 00:39:02;;;;;;;5.00;3.10;;;;;;;17.16;47.53;96654.41;10474928;28;20054;-29
2022/12/07 00:44:02;;;;;;;5.07;3.80;;;;;;;17.17;47.39;96649.31;10471222;28;20036;-29
2022/12/07 00:49:03;;;;;;;4.70;3.70;;;;;;;17.16;47.39;96642.56;10476600;28;20047;-29
2022/12/07 00:54:03;;;;;;;6.97;3.33;;;;;;;17.23;47.06;96638.41;10480961;28;20082;-29
2022/12/07 00:59:04;;;;;;;5.30;3.10;;;;;;;17.23;47.56;96646.00;10480173;28;20040;-31
2022/12/07 01:04:05;;;;;;;4.18;3.13;;;;;;;17.19;47.65;96636.69;10485512;28;20107;-29
2022/12/07 01:09:06;;;;;;;6.75;3.67;;;;;;;17.18;48.05;96643.44;10473459;28;20029;-30
2022/12/07 01:14:06;;;;;;;5.50;3.83;;;;;;;17.17;47.99;96645.97;10476106;28;20043;-29
2022/12/07 01:19:06;;;;;;;4.30;3.43;;;;;;;17.19;47.65;96640.06;10479395;28;20286;-29
2022/12/07 01:24:10;;;;;;;6.50;3.40;;;;;;;17.18;48.32;96642.59;10475135;28;20293;-29
2022/12/07 01:29:10;;;;;;;6.00;3.55;;;;;;;17.19;47.82;96651.88;10482237;28;20190;-29
2022/12/07 01:34:10;;;;;;;3.97;3.57;;;;;;;17.20;47.63;96645.97;10474436;28;20047;-29
2022/12/07 01:39:11;;;;;;;6.50;4.00;;;;;;;17.18;47.93;96648.50;10485270;28;20066;-29
2022/12/07 01:44:14;;;;;;;4.90;3.77;;;;;;;17.18;48.55;96652.72;10471419;28;20291;-29
2022/12/07 01:49:45;;;;;;;5.80;3.30;;;;;;;17.17;48.62;96656.09;10483427;28;20691;-28
2022/12/07 01:54:49;;;;;;;4.55;3.55;;;;;;;17.19;48.47;96659.47;10481153;28;20047;-29
2022/12/07 01:59:52;;;;;;;6.50;3.78;;;;;;;17.15;48.94;96657.78;10483277;28;20087;-29
2022/12/07 02:04:55;;;;;;;5.10;3.95;;;;;;;17.20;47.27;96656.09;10487143;28;20039;-28
2022/12/07 02:09:56;;;;;;;4.40;3.55;;;;;;;17.24;47.10;96665.41;10476676;28;20583;-29
2022/12/07 02:14:56;;;;;;;5.53;3.22;;;;;;;17.21;48.12;96657.78;10483975;28;20070;-29
2022/12/07 02:20:22;;;;;;;6.50;3.97;;;;;;;17.20;48.75;96667.06;10501704;28;20040;-29
2022/12/07 02:26:13;;;;;;;4.97;4.27;;;;;;;16.99;48.96;96629.03;10474183;28;20294;-28
2022/12/07 02:31:19;;;;;;;4.15;3.33;;;;;;;17.21;47.82;96652.72;10426962;28;20421;-31
2022/12/07 02:36:42;;;;;;;3.65;3.33;;;;;;;17.21;48.53;96655.25;10474269;28;20053;-30
2022/12/07 02:41:46;;;;;;;3.45;3.13;;;;;;;17.21;47.73;96652.72;10483564;28;20043;-29
2022/12/07 02:46:54;;;;;;;3.65;3.35;;;;;;;17.21;48.53;96652.72;10481323;28;20087;-29
2022/12/07 02:51:55;;;;;;;5.13;3.40;;;;;;;17.21;48.38;96652.72;10483243;28;20029;-29
2022/12/07 02:57:29;;;;;;;4.18;3.63;;;;;;;17.21;48.15;96653.56;10477359;28;20090;-29
2022/12/07 03:02:48;;;;;;;5.30;3.50;;;;;;;17.23;47.17;96651.06;10480012;28;20021;-29
2022/12/07 03:08:02;;;;;;;4.45;3.80;;;;;;;17.23;48.02;96661.19;10478375;28;20056;-29
2022/12/07 03:13:09;;;;;;;4.90;3.90;;;;;;;17.22;48.08;96659.47;10479309;28;20067;-30
2022/12/07 03:18:12;;;;;;;3.70;3.28;;;;;;;17.12;47.63;96647.63;10476907;28;20048;-29
2022/12/07 03:23:16;;;;;;;5.43;4.45;;;;;;;17.29;46.51;96661.19;10488333;28;20509;-29
2022/12/07 03:28:21;;;;;;;4.30;3.70;;;;;;;17.28;46.86;96654.44;10477748;28;20036;-29
2022/12/07 03:33:36;;;;;;;4.15;3.75;;;;;;;17.27;47.23;96657.81;10484880;28;20036;-31
2022/12/07 03:39:09;;;;;;;4.32;3.92;;;;;;;17.26;47.24;96646.00;10473648;28;20036;-30
2022/12/07 03:44:10;;;;;;;5.63;4.07;;;;;;;17.25;47.72;96644.31;10457368;28;20438;-30
2022/12/07 03:49:25;;;;;;;4.20;3.80;;;;;;;17.23;47.73;96639.22;10485389;28;20044;-28
2022/12/07 03:54:36;;;;;;;4.68;4.10;;;;;;;17.23;47.64;96633.34;10476617;28;20491;-29
2022/12/07 03:59:38;;;;;;;5.47;4.28;;;;;;;17.21;47.95;96632.47;10481246;28;20383;-29
2022/12/07 04:04:39;;;;;;;6.63;4.40;;;;;;;17.20;47.51;96646.81;10472628;28;20553;-29
2022/12/07 04:09:39;;;;;;;4.38;3.97;;;;;;;17.17;47.45;96628.25;10486536;28;20718;-29
2022/12/07 04:14:40;;;;;;;5.30;4.77;;;;;;;17.19;48.14;96629.97;10483271;28;20071;-30
2022/12/07 04:19:40;;;;;;;5.13;4.27;;;;;;;17.19;47.68;96629.97;10493943;28;20279;-29
2022/12/07 04:24:40;;;;;;;5.60;4.77;;;;;;;17.20;47.66;96620.66;10471975;28;20385;-29
2022/12/07 04:29:41;;;;;;;4.40;3.97;;;;;;;17.20;47.52;96630.78;10487611;28;20506;-29
2022/12/07 04:34:41;;;;;;;5.20;4.43;;;;;;;17.20;47.12;96634.19;10481759;28;20301;-31
2022/12/07 04:39:43;;;;;;;5.23;4.40;;;;;;;17.24;46.62;96622.38;10487398;28;20275;-28
2022/12/07 04:44:44;;;;;;;4.18;3.75;;;;;;;17.24;46.50;96623.22;10482788;28;20054;-29
2022/12/07 04:49:44;;;;;;;5.10;4.10;;;;;;;17.23;46.93;96631.66;10486044;28;20099;-29
2022/12/07 04:54:45;;;;;;;5.10;4.23;;;;;;;17.23;46.94;96623.22;10480570;28;20224;-29
2022/12/07 04:59:45;;;;;;;4.07;3.45;;;;;;;17.24;46.81;96635.84;10484383;28;20040;-29
2022/12/07 05:04:46;;;;;;;3.87;3.33;;;;;;;17.20;47.40;96629.13;10482531;28;20034;-29
2022/12/07 05:09:46;;;;;;;5.63;4.17;;;;;;;17.27;47.08;96628.31;10484392;28;20024;-30
2022/12/07 05:14:46;;;;;;;4.57;3.77;;;;;;;17.28;46.44;96634.19;10480834;28;20052;-29
2022/12/07 05:19:47;;;;;;;5.70;4.10;;;;;;;17.30;46.59;96633.34;10476678;28;20059;-30
2022/12/07 05:24:47;;;;;;;4.17;3.77;;;;;;;17.34;46.19;96629.16;10474417;28;20032;-29
2022/12/07 05:29:49;;;;;;;4.37;3.97;;;;;;;17.37;46.14;96624.13;10485328;28;20089;-29
2022/12/07 05:34:49;;;;;;;3.38;3.00;;;;;;;17.41;46.65;96620.78;10479451;28;20040;-29
2022/12/07 05:39:50;;;;;;;4.23;2.83;;;;;;;17.43;45.99;96619.09;10477125;28;20036;-29
2022/12/07 05:44:50;;;;;;;3.87;3.07;;;;;;;17.43;46.68;96616.56;10470757;28;20282;-30
2022/12/07 05:49:51;;;;;;;3.83;2.90;;;;;;;17.39;46.29;96613.19;10481555;28;20040;-29
2022/12/07 05:54:51;;;;;;;6.87;3.37;;;;;;;17.48;45.76;96620.78;10474188;28;20749;-30
2022/12/07 05:59:52;;;;;;;21.25;3.75;;;;;;;17.51;46.41;96622.47;10470079;28;20040;-31
2022/12/07 06:04:52;;;;;;;7.13;3.53;;;;;;;17.44;46.45;96613.19;10470012;28;20089;-29
2022/12/07 06:09:53;;;;;;;4.87;3.00;;;;;;;17.30;45.30;96622.38;10472261;28;20040;-29
2022/12/07 06:14:53;;;;;;;4.13;2.60;;;;;;;17.35;45.61;96621.56;10475123;28;20039;-29
2022/12/07 06:19:53;;;;;;;3.30;2.80;;;;;;;17.38;46.60;96633.41;10478449;28;20037;-29
2022/12/07 06:24:54;;;;;;;3.53;2.97;;;;;;;17.38;46.00;96625.81;10475482;28;20836;-31
2022/12/07 06:29:54;;;;;;;6.45;3.15;;;;;;;17.40;46.72;96627.50;10483459;28;20054;-29
2022/12/07 06:34:54;;;;;;;4.97;2.97;;;;;;;17.07;44.47;96629.06;10482251;28;20396;-29
2022/12/07 06:39:55;;;;;;;4.10;3.00;;;;;;;16.96;44.10;96636.59;10478717;28;20561;-29
2022/12/07 06:44:55;;;;;;;4.00;2.67;;;;;;;17.10;44.18;96639.19;10478634;28;20491;-29
2022/12/07 06:49:56;;;;;;;4.17;2.50;;;;;;;17.16;44.70;96626.56;10487025;28;20036;-29
2022/12/07 06:54:56;;;;;;;3.90;2.80;;;;;;;17.21;45.52;96627.41;10476752;28;20081;-29
2022/12/07 06:59:56;;;;;;;3.67;2.77;;;;;;;17.24;44.96;96627.44;10484525;28;20037;-29
2022/12/07 07:04:57;;;;;;;5.03;3.10;;;;;;;17.28;45.71;96622.41;10476003;28;20270;-29
2022/12/07 07:09:57;;;;;;;2.60;2.38;;;;;;;17.27;45.47;96618.19;10489053;28;20227;-29
2022/12/07 07:14:58;;;;;;;3.90;2.33;;;;;;;17.28;45.01;96624.06;10485060;28;20028;-29
2022/12/07 07:19:58;;;;;;;4.17;2.50;;;;;;;17.29;45.05;96630.81;10485069;28;20036;-29
2022/12/07 07:24:58;;;;;;;2.30;2.10;;;;;;;17.33;45.56;96635.06;10485977;28;20837;-29
2022/12/07 07:29:59;;;;;;;2.50;2.10;;;;;;;17.35;44.87;96638.44;10474815;28;20676;-29
2022/12/07 07:34:59;;;;;;;2.60;1.90;;;;;;;17.32;45.09;96649.38;10488524;28;20419;-29
2022/12/07 07:39:59;;;;;;;2.15;1.95;;;;;;;17.37;45.14;96654.50;10479328;28;20103;-29
2022/12/07 07:45:00;;;;;;;3.23;2.33;;;;;;;17.37;45.46;96654.50;10480451;28;20702;-29
2022/12/07 07:50:00;;;;;;;5.53;2.20;;;;;;;17.37;44.97;96659.56;10484156;28;20289;-29
2022/12/07 07:55:01;;;;;;;2.33;1.80;;;;;;;17.31;45.10;96664.59;10479296;28;20659;-28
2022/12/07 08:00:04;;;;;;;2.05;1.58;;;;;;;17.35;44.83;96682.31;10474721;28;20291;-29
2022/12/07 08:05:13;;;;;;;2.30;2.10;;;;;;;17.37;44.86;96682.31;10475944;28;20040;-29
2022/12/07 08:10:14;;;;;;;2.25;1.85;;;;;;;17.39;44.66;96678.09;10481844;28;20051;-29
2022/12/07 08:15:15;;;;;;;2.70;1.80;;;;;;;17.40;44.81;96679.81;10477886;28;20029;-30
2022/12/07 08:20:15;;;;;;;2.10;1.73;;;;;;;17.38;44.37;96689.06;10478661;28;20032;-30
2022/12/07 08:25:16;;;;;;;2.13;1.60;;;;;;;17.37;44.78;96689.91;10478792;28;20306;-29
2022/12/07 08:30:16;;;;;;;2.25;1.98;;;;;;;17.37;44.36;96700.03;10487326;28;20282;-28
2022/12/07 08:35:17;;;;;;;2.58;2.03;;;;;;;17.35;44.64;96691.56;10487700;28;20036;-29
2022/12/07 08:40:18;;;;;;;3.40;2.00;;;;;;;17.35;44.92;96691.56;10481786;28;20020;-29
2022/12/07 08:45:20;;;;;;;2.20;1.90;;;;;;;17.30;44.87;96688.16;10481915;28;20032;-30
2022/12/07 08:50:21;;;;;;;2.63;2.20;;;;;;;17.32;44.66;96692.41;10479727;28;20041;-29
2022/12/07 08:55:23;;;;;;;2.00;1.60;;;;;;;17.36;44.72;96690.75;10484606;28;20149;-29
2022/12/07 09:00:23;;;;;;;2.42;1.98;;;;;;;17.34;45.07;96695.78;10473447;28;20056;-29
2022/12/07 09:05:23;;;;;;;2.03;1.80;;;;;;;17.34;44.94;96694.94;10476196;28;20086;-30
2022/12/07 09:10:24;;;;;;;2.00;1.80;;;;;;;17.34;44.95;96697.47;10477107;28;20040;-29
2022/12/07 09:15:24;;;;;;;3.73;1.60;;;;;;;17.34;44.31;96695.78;10474763;28;20082;-29
2022/12/07 09:20:25;;;;;;;2.00;1.80;;;;;;;17.37;44.43;96700.03;10479247;28;20612;-29
2022/12/07 09:25:26;;;;;;;2.40;1.90;;;;;;;17.39;45.31;96703.41;10477945;28;20526;-29
2022/12/07 09:30:27;;;;;;;2.53;2.03;;;;;;;17.40;44.65;96702.59;10482066;28;20112;-29
2022/12/07 09:35:28;;;;;;;1.60;1.50;;;;;;;17.38;44.89;96701.72;10482054;28;20031;-29
2022/12/07 09:40:28;;;;;;;2.20;2.00;;;;;;;17.37;44.97;96700.03;10470787;28;20370;-29
2022/12/07 09:45:35;;;;;;;1.60;1.50;;;;;;;17.34;44.97;96694.94;10476388;28;20028;-29
2022/12/07 09:50:35;;;;;;;2.15;1.95;;;;;;;17.29;44.99;96676.34;10479661;28;20308;-29
2022/12/07 09:55:37;;;;;;;1.87;1.63;;;;;;;17.35;44.64;96681.44;10466351;28;20477;-29
2022/12/07 10:00:38;;;;;;;1.75;1.63;;;;;;;17.27;45.05;96672.97;10479468;28;20028;-29
2022/12/07 10:05:44;;;;;;;2.00;1.80;;;;;;;17.35;44.79;96676.38;10476475;28;20036;-29
2022/12/07 10:10:46;;;;;;;2.40;1.90;;;;;;;17.28;44.49;96664.53;10481770;28;20695;-29
2022/12/07 10:15:53;;;;;;;2.22;1.60;;;;;;;17.33;44.71;96662.91;10482331;28;20468;-29
2022/12/07 10:21:01;;;;;;;1.60;1.50;;;;;;;17.35;44.25;96661.22;10486020;28;20107;-29
2022/12/07 10:26:20;;;;;;;2.50;1.90;;;;;;;17.35;44.87;96648.56;10487766;28;20032;-32
2022/12/07 10:31:23;;;;;;;1.60;1.50;;;;;;;17.39;44.68;96647.75;10482422;28;20588;-29
2022/12/07 10:36:38;;;;;;;1.63;1.35;;;;;;;17.40;44.66;96634.28;10484283;28;20068;-30
2022/12/07 10:41:58;;;;;;;2.05;1.80;;;;;;;17.38;44.15;96628.34;10481846;28;20112;-29
2022/12/07 10:47:04;;;;;;;1.60;1.50;;;;;;;17.37;44.58;96632.56;10483520;28;20048;-29
2022/12/07 10:52:20;;;;;;;1.55;1.20;;;;;;;17.35;44.81;96610.59;10484262;28;20103;-29
2022/12/07 10:57:45;;;;;;;1.45;1.27;;;;;;;17.34;44.31;96606.38;10488754;28;20111;-29
2022/12/07 11:03:05;;;;;;;1.50;1.40;;;;;;;17.35;44.32;96600.47;10481645;28;20036;-29
2022/12/07 11:08:44;;;;;;;1.75;1.60;;;;;;;17.29;44.53;96595.38;10479164;28;20041;-29
2022/12/07 11:14:05;;;;;;;1.67;1.42;;;;;;;17.22;44.40;96584.41;10408098;28;20102;-30
2022/12/07 11:19:39;;;;;;;1.75;1.50;;;;;;;17.28;44.21;96586.97;10473941;28;20404;-28
2022/12/07 11:24:48;;;;;;;1.13;1.00;;;;;;;17.29;44.96;96580.22;10471854;28;20029;-29
2022/12/07 11:30:02;;;;;;;2.28;1.77;;;;;;;17.33;44.38;96566.75;10479968;28;20044;-30
2022/12/07 11:35:22;;;;;;;1.88;1.52;;;;;;;17.40;43.86;96563.41;10487596;28;20507;-28
2022/12/07 11:40:36;;;;;;;1.52;1.42;;;;;;;17.47;44.52;96572.69;10473588;28;20488;-29
2022/12/07 11:45:41;;;;;;;4.57;1.85;;;;;;;17.16;43.08;96553.22;10470751;28;20032;-29
2022/12/07 11:50:53;;;;;;;2.72;1.80;;;;;;;16.93;48.55;96564.94;10489436;28;20112;-29
2022/12/07 11:56:12;;;;;;;5.95;1.70;;;;;;;16.89;50.15;96555.66;10487825;28;20518;-30
2022/12/07 12:01:31;;;;;;;10.55;2.35;;;;;;;16.88;50.16;96541.31;10478373;28;20125;-29
2022/12/07 12:06:31;;;;;;;2.97;1.73;;;;;;;16.82;50.44;96537.06;10483206;28;20052;-29
2022/12/07 12:12:10;;;;;;;2.70;1.90;;;;;;;16.84;50.22;96530.34;10480649;28;20036;-29
2022/12/07 12:17:34;;;;;;;4.07;1.73;;;;;;;16.89;50.11;96520.28;10469980;28;20044;-29
2022/12/07 12:22:40;;;;;;;4.10;1.70;;;;;;;16.87;49.68;96515.19;10476745;28;20032;-29
2022/12/07 12:27:47;;;;;;;4.10;1.87;;;;;;;16.90;49.67;96501.72;10482493;28;20090;-29
2022/12/07 12:32:47;;;;;;;5.95;2.70;;;;;;;16.88;49.82;96510.97;10471599;28;20032;-29
2022/12/07 12:37:48;;;;;;;9.07;3.15;;;;;;;16.86;50.21;96505.94;10486311;28;20525;-29
2022/12/07 12:42:56;;;;;;;5.47;2.85;;;;;;;16.86;50.29;96502.53;10484384;28;20036;-29
2022/12/07 12:47:58;;;;;;;7.90;2.72;;;;;;;16.86;50.26;96497.47;10483496;28;20029;-29
2022/12/07 12:53:03;;;;;;;11.50;3.30;;;;;;;16.84;50.64;96489.06;10477765;28;20032;-29
2022/12/07 12:58:19;;;;;;;8.10;2.58;;;;;;;16.87;50.42;96489.06;10475983;28;20071;-29
2022/12/07 13:03:28;;;;;;;8.85;3.25;;;;;;;16.83;51.47;96487.38;10469302;28;20043;-29
2022/12/07 13:08:30;;;;;;;7.20;3.22;;;;;;;16.86;51.72;96477.25;10473964;28;20036;-29
2022/12/07 13:13:32;;;;;;;11.00;3.65;;;;;;;16.88;51.44;96471.38;10477212;28;20630;-28
2022/12/07 13:18:33;;;;;;;11.70;3.38;;;;;;;16.88;51.28;96470.50;10468208;28;20131;-29
2022/12/07 13:23:55;;;;;;;16.67;5.47;;;;;;;16.86;51.66;96469.69;10481001;28;20047;-29
2022/12/07 13:29:14;;;;;;;14.73;3.40;;;;;;;16.80;51.42;96457.00;10475108;28;20044;-29
2022/12/07 13:34:35;;;;;;;8.02;3.50;;;;;;;16.83;51.59;96467.16;10465435;28;20106;-29
2022/12/07 13:39:45;;;;;;;6.22;3.05;;;;;;;16.84;51.17;96458.72;10476900;28;20090;-29
2022/12/07 13:44:46;;;;;;;6.95;2.90;;;;;;;16.89;50.86;96462.94;10473528;28;20060;-28
2022/12/07 13:49:51;;;;;;;5.93;3.03;;;;;;;16.87;51.05;96459.56;10490578;28;20119;-29
2022/12/07 13:54:59;;;;;;;7.23;3.33;;;;;;;16.88;50.89;96455.34;10483535;28;20349;-29
2022/12/07 14:00:02;;;;;;;8.95;3.00;;;;;;;16.86;51.09;96454.50;10479677;28;20036;-29
2022/12/07 14:05:23;;;;;;;5.00;2.35;;;;;;;16.85;50.89;96452.81;10479575;28;20037;-29
2022/12/07 14:10:26;;;;;;;6.18;2.60;;;;;;;16.87;51.09;96448.59;10478214;28;20102;-28
2022/12/07 14:15:30;;;;;;;4.82;2.50;;;;;;;16.86;50.22;96452.84;10482549;28;20500;-28
2022/12/07 14:20:37;;;;;;;4.03;2.15;;;;;;;16.88;50.61;96450.28;10486922;28;20089;-30
2022/12/07 14:25:45;;;;;;;;;;;;;;;16.88;50.23;96441.03;10478130;28;20066;-29
2022/12/07 14:30:45;;;;;;;7.47;2.60;;;;;;;16.86;50.57;96435.13;10487362;28;19922;-30
2022/12/07 14:35:45;;;;;;;6.90;2.73;;;;;;;16.95;50.03;96436.81;10489978;28;20051;-29
2022/12/07 14:40:46;;;;;;;11.43;3.63;;;;;;;16.97;51.24;96433.44;10483402;28;20146;-29
2022/12/07 14:45:46;;;;;;;20.13;3.47;;;;;;;16.82;46.73;96432.59;10487012;28;20028;-29
2022/12/07 14:50:52;;;;;;;12.80;3.03;;;;;;;16.89;51.56;96431.78;10483682;28;20667;-29
2022/12/07 14:55:53;;;;;;;6.30;3.03;;;;;;;16.92;51.07;96441.88;10483541;28;20032;-28
2022/12/07 15:00:53;;;;;;;16.17;3.63;;;;;;;16.89;51.02;96447.78;10484437;28;20040;-29
2022/12/07 15:05:53;;;;;;;7.63;3.10;;;;;;;16.86;51.33;96446.91;10482496;28;20043;-28
2022/12/07 15:10:54;;;;;;;6.07;3.90;;;;;;;16.81;51.77;96448.63;10481551;28;20086;-28
2022/12/07 15:15:54;;;;;;;13.20;4.23;;;;;;;16.86;51.67;96451.97;10477559;28;20299;-29
2022/12/07 15:20:55;;;;;;;3.85;2.00;;;;;;;16.85;51.35;96443.56;10485685;28;20024;-29
2022/12/07 15:25:55;;;;;;;7.27;2.00;;;;;;;16.87;51.46;96443.53;10480676;28;20033;-29
2022/12/07 15:30:55;;;;;;;8.40;2.20;;;;;;;16.89;51.28;96446.94;10489503;28;20040;-28
2022/12/07 15:35:59;;;;;;;5.10;2.57;;;;;;;16.89;51.27;96452.00;10487133;28;20032;-29
2022/12/07 15:40:59;;;;;;;3.75;2.17;;;;;;;16.90;51.31;96451.16;10476470;28;20400;-29
2022/12/07 15:45:59;;;;;;;3.45;2.30;;;;;;;16.88;51.13;96446.09;10480926;28;20043;-30
2022/12/07 15:51:08;;;;;;;2.60;2.00;;;;;;;16.88;51.10;96447.75;10481290;28;20037;-29
2022/12/07 15:56:08;;;;;;;4.65;2.28;;;;;;;16.86;51.20;96440.19;10481034;28;20364;-29
2022/12/07 16:01:18;;;;;;;4.47;2.40;;;;;;;16.89;51.32;96457.06;10489171;28;20028;-29
2022/12/07 16:06:19;;;;;;;3.88;2.28;;;;;;;16.82;51.02;96437.66;10483381;28;20279;-29
2022/12/07 16:11:20;;;;;;;2.70;2.00;;;;;;;16.89;50.88;96436.84;10475001;28;20036;-28
2022/12/07 16:16:22;;;;;;;3.65;2.42;;;;;;;16.87;51.27;96438.50;10472475;28;20036;-28
2022/12/07 16:21:22;;;;;;;5.20;3.08;;;;;;;16.82;51.24;96425.00;10475016;28;20440;-29
2022/12/07 16:26:23;;;;;;;4.13;2.30;;;;;;;16.87;51.54;96438.50;10479891;28;20033;-28
2022/12/07 16:31:26;;;;;;;4.35;1.98;;;;;;;16.84;51.06;96435.97;10487980;28;20313;-28
2022/12/07 16:36:27;;;;;;;6.63;2.30;;;;;;;16.87;49.75;96433.44;10483784;28;20045;-29
2022/12/07 16:41:27;;;;;;;4.65;2.17;;;;;;;16.77;51.44;96420.78;10482802;28;20028;-29
2022/12/07 16:46:29;;;;;;;2.67;1.77;;;;;;;16.81;52.45;96433.44;10477834;28;20044;-29
2022/12/07 16:51:29;;;;;;;6.87;2.60;;;;;;;16.82;53.30;96430.06;10478160;28;20036;-29
2022/12/07 16:56:30;;;;;;;5.18;2.33;;;;;;;16.91;53.30;96425.03;10484431;28;20305;-31
2022/12/07 17:01:30;;;;;;;5.60;2.80;;;;;;;16.95;53.27;96429.22;10471529;28;20497;-29
2022/12/07 17:06:31;;;;;;;5.60;2.47;;;;;;;16.97;52.44;96419.94;10474507;28;20037;-28
2022/12/07 17:11:31;;;;;;;8.75;2.80;;;;;;;16.93;52.66;96411.56;10466383;28;20312;-29
2022/12/07 17:16:32;;;;;;;4.82;2.53;;;;;;;16.93;52.23;96409.03;10469029;28;20131;-29
2022/12/07 17:21:33;;;;;;;4.18;2.47;;;;;;;16.92;52.14;96411.53;10482555;28;20673;-29
2022/12/07 17:26:34;;;;;;;7.03;2.05;;;;;;;16.89;52.29;96401.44;10473338;28;20045;-28
2022/12/07 17:31:34;;;;;;;5.13;2.00;;;;;;;16.84;52.10;96398.03;10475621;28;20067;-28
2022/12/07 17:36:35;;;;;;;4.95;2.47;;;;;;;16.88;51.82;96400.56;10483938;28;20392;-29
2022/12/07 17:47:01;;;;;;;3.13;2.25;;;;;;;16.91;51.40;96404.78;10478393;28;20048;-29
2022/12/07 17:57:20;;;;;;;4.10;1.98;;;;;;;16.88;51.43;96405.63;10481909;28;20040;-29
2022/12/07 18:02:21;;;;;;;4.57;2.63;;;;;;;16.91;51.49;96399.75;10471364;28;20036;-28
2022/12/07 18:07:21;;;;;;;5.72;2.40;;;;;;;16.92;51.09;96401.41;10479926;28;20554;-29
2022/12/07 18:12:22;;;;;;;4.57;2.53;;;;;;;16.93;50.98;96393.84;10470042;28;20037;-29
2022/12/07 18:17:22;;;;;;;4.53;2.80;;;;;;;16.92;51.03;96397.19;10476979;28;20419;-29
2022/12/07 18:22:24;;;;;;;4.80;2.53;;;;;;;16.95;51.65;96388.78;10483409;28;20051;-29
2022/12/07 18:27:24;;;;;;;4.72;2.58;;;;;;;16.92;51.86;96383.72;10478325;28;20064;-29
2022/12/07 18:32:24;;;;;;;4.90;2.40;;;;;;;16.94;52.08;96384.56;10480898;28;20193;-29
2022/12/07 18:37:26;;;;;;;8.30;2.77;;;;;;;16.91;52.22;96387.09;10489988;28;20295;-30
2022/12/07 18:42:26;;;;;;;6.55;2.55;;;;;;;16.93;52.18;96395.53;10488408;28;20107;-30
2022/12/07 18:47:27;;;;;;;5.40;2.50;;;;;;;16.84;51.67;96372.75;10474732;28;20033;-30
2022/12/07 18:52:27;;;;;;;5.07;2.60;;;;;;;16.94;51.87;96392.16;10484098;28;20806;-29
2022/12/07 18:57:31;;;;;;;2.80;2.40;;;;;;;16.95;52.07;96384.56;10487638;28;20320;-31
2022/12/07 19:02:31;;;;;;;3.63;2.42;;;;;;;16.92;51.78;96386.25;10478874;28;20543;-29
2022/12/07 19:07:32;;;;;;;4.33;2.80;;;;;;;16.92;52.02;96388.78;10485655;28;20043;-30
2022/12/07 19:12:32;;;;;;;4.73;2.93;;;;;;;16.90;52.73;96388.78;10486698;28;20089;-30
2022/12/07 19:17:34;;;;;;;6.35;2.78;;;;;;;16.93;53.19;96377.81;10483005;28;20119;-31
2022/12/07 19:22:35;;;;;;;6.03;2.80;;;;;;;16.74;53.79;96346.63;10488272;28;20052;-31
2022/12/07 19:27:35;;;;;;;4.10;2.60;;;;;;;16.94;53.71;96377.84;10462468;28;20059;-30
2022/12/07 19:32:36;;;;;;;5.57;2.93;;;;;;;16.90;53.86;96355.91;10473265;28;20037;-29
2022/12/07 19:37:37;;;;;;;6.05;3.17;;;;;;;16.93;53.70;96367.72;10479070;28;20127;-30
2022/12/07 19:42:37;;;;;;;6.87;3.30;;;;;;;16.88;54.03;96374.44;10476182;28;20060;-29
2022/12/07 19:47:38;;;;;;;10.33;5.47;;;;;;;16.86;54.97;96373.59;10488546;28;20035;-30
2022/12/07 19:52:38;;;;;;;11.48;6.20;;;;;;;16.90;55.41;96375.31;10480471;28;20297;-30
2022/12/07 19:57:38;;;;;;;9.83;5.70;;;;;;;16.95;54.36;96368.53;10478433;28;20086;-29
2022/12/07 20:02:39;;;;;;;10.47;5.70;;;;;;;16.91;54.41;96360.13;10479955;28;20030;-29
2022/12/07 20:07:40;;;;;;;9.77;5.13;;;;;;;16.94;53.82;96351.69;10483030;28;20032;-30
2022/12/07 20:17:59;;;;;;;9.43;5.53;;;;;;;16.75;49.54;96348.31;10475910;28;20511;-29
2022/12/07 20:23:00;;;;;;;7.93;4.67;;;;;;;16.86;51.48;96338.19;10482500;28;20039;-30
2022/12/07 20:28:00;;;;;;;6.30;4.47;;;;;;;16.95;51.94;96344.13;10478444;28;20032;-31
2022/12/07 20:33:00;;;;;;;6.30;4.80;;;;;;;16.98;51.66;96326.41;10483333;28;20309;-29
2022/12/07 20:38:01;;;;;;;6.87;4.20;;;;;;;16.99;52.19;96329.78;10479510;28;20093;-29
2022/12/07 20:43:02;;;;;;;5.50;3.93;;;;;;;16.94;51.78;96323.88;10473014;28;20036;-29
2022/12/07 20:48:02;;;;;;;6.65;3.90;;;;;;;16.97;51.41;96323.88;10485834;28;20484;-29
2022/12/07 20:53:02;;;;;;;8.23;4.40;;;;;;;17.00;51.00;96318.81;10478936;28;20036;-30
2022/12/07 20:58:03;;;;;;;10.60;6.37;;;;;;;16.93;52.66;96323.06;10483192;28;20419;-29
2022/12/07 21:03:04;;;;;;;8.55;3.95;;;;;;;16.91;52.90;96323.88;10470703;28;20298;-29
2022/12/07 21:08:04;;;;;;;7.35;3.65;;;;;;;16.85;52.25;96301.97;10486309;28;20116;-29
2022/12/07 21:13:05;;;;;;;8.98;4.63;;;;;;;16.94;53.05;96319.69;10491881;28;20039;-30
2022/12/07 21:18:05;;;;;;;6.68;4.28;;;;;;;17.01;53.02;96320.50;10475200;28;20040;-30
2022/12/07 21:23:05;;;;;;;8.02;4.32;;;;;;;17.05;51.27;96315.44;10480196;28;20102;-29
2022/12/07 21:28:06;;;;;;;6.33;4.80;;;;;;;17.05;51.38;96312.06;10494396;28;20041;-29
2022/12/07 21:33:06;;;;;;;6.13;4.07;;;;;;;17.07;50.06;96302.81;10478129;28;20302;-29
2022/12/07 21:38:06;;;;;;;5.83;3.33;;;;;;;17.07;48.39;96305.34;10491451;28;20302;-30
2022/12/07 21:43:07;;;;;;;5.20;3.47;;;;;;;17.02;49.15;96301.97;10498804;28;20639;-30
2022/12/07 21:48:08;;;;;;;4.23;3.10;;;;;;;16.97;48.20;96281.72;10490832;28;20039;-29
2022/12/07 21:53:08;;;;;;;4.18;3.15;;;;;;;17.04;48.13;96285.09;10488501;28;20028;-30
2022/12/07 21:58:09;;;;;;;5.17;3.27;;;;;;;17.05;47.94;96281.72;10492449;28;20424;-29
2022/12/07 22:03:11;;;;;;;4.65;2.80;;;;;;;17.09;46.77;96288.47;10470868;28;20388;-33
2022/12/07 22:08:11;;;;;;;6.32;2.92;;;;;;;17.09;48.41;96283.41;10481080;28;20075;-30
2022/12/07 22:13:11;;;;;;;6.10;4.60;;;;;;;16.60;47.02;96286.81;10493029;28;20117;-31
2022/12/07 22:18:12;;;;;;;5.35;4.10;;;;;;;16.30;46.49;96276.63;10484319;28;20098;-29
2022/12/07 22:23:12;;;;;;;6.07;3.77;;;;;;;16.74;47.88;96285.13;10478224;28;20024;-29
2022/12/07 22:28:12;;;;;;;5.27;3.43;;;;;;;16.83;47.64;96287.66;10508918;28;20095;-29
2022/12/07 22:33:14;;;;;;;5.03;3.77;;;;;;;16.82;49.41;96286.78;10504604;28;20032;-29
2022/12/07 22:38:15;;;;;;;4.30;3.28;;;;;;;16.79;49.79;96281.75;10493992;28;20033;-29
2022/12/07 22:43:15;;;;;;;7.30;3.57;;;;;;;16.78;50.87;96282.59;10494952;28;20025;-30
2022/12/07 22:48:16;;;;;;;6.07;4.00;;;;;;;16.80;51.58;96280.91;10489312;28;20032;-29
2022/12/07 22:53:16;;;;;;;4.50;3.57;;;;;;;16.81;52.18;96269.13;10486438;28;20036;-31
2022/12/07 22:58:17;;;;;;;5.37;3.37;;;;;;;16.80;52.85;96260.69;10480966;28;20032;-30
2022/12/07 23:03:26;;;;;;;5.78;3.85;;;;;;;16.80;53.26;96257.28;10475713;28;20044;-29
2022/12/07 23:08:27;;;;;;;5.13;3.57;;;;;;;16.80;53.13;96259.81;10478848;28;20048;-29
2022/12/07 23:13:36;;;;;;;5.80;3.80;;;;;;;16.77;53.77;96245.53;10482774;28;20090;-29
2022/12/07 23:18:41;;;;;;;4.55;3.13;;;;;;;16.81;53.16;96241.31;10473430;28;20115;-29
2022/12/07 23:23:41;;;;;;;4.85;3.50;;;;;;;16.82;53.60;96248.06;10488565;28;20043;-29
2022/12/07 23:28:41;;;;;;;4.17;3.40;;;;;;;16.81;53.57;96232.03;10482102;28;20522;-29
2022/12/07 23:33:43;;;;;;;4.00;3.07;;;;;;;16.83;53.45;96229.50;10478592;28;20488;-29
2022/12/07 23:38:45;;;;;;;4.47;2.67;;;;;;;16.81;53.79;96232.03;10475853;28;20295;-30
2022/12/07 23:43:46;;;;;;;6.35;3.35;;;;;;;16.81;54.11;96231.22;10479933;28;20036;-30
2022/12/07 23:48:48;;;;;;;4.57;2.83;;;;;;;16.82;53.71;96231.19;10485889;28;20047;-29